Time;durP1;ratioP1;P1;durP2;ratioP2;P2;SDS_P1;SDS_P2;PMS_P1;PMS_P2;Temp;Humidity;BMP_temperature;BMP_pressure;BME280_temperature;BME280_humidity;BME280_pressure;Samples;Min_cycle;Max_cycle;Signal;HPM_P1;HPM_P2
2021/11/27 00:01:51;;;;;;;;;;;;;;;-144.99;100.00;52619.31;5054219;28;20003;-80
2021/11/27 00:04:18;;;;;;;;;;;;;;;-144.99;100.00;52649.88;5053285;28;20216;-79
2021/11/27 00:06:45;;;;;;;;;;;;;;;-144.99;100.00;52635.63;5053304;28;19992;-80
2021/11/27 00:09:12;;;;;;;;;;;;;;;-144.99;100.00;52623.38;5041595;28;20443;-80
2021/11/27 00:11:39;;;;;;;;;;;;;;;-144.99;100.00;52605.03;5049804;28;19977;-80
2021/11/27 00:14:06;;;;;;;;;;;;;;;-144.99;100.00;52647.84;5042410;28;20407;-79
2021/11/27 00:16:34;;;;;;;;;;;;;;;-144.99;100.00;52660.09;5055232;28;20026;-75
2021/11/27 00:19:02;;;;;;;;;;;;;;;-144.99;100.00;52598.94;5052415;28;19989;-78
2021/11/27 00:21:28;;;;;;;;;;;;;;;-144.99;100.00;52635.63;5053813;28;20020;-77
2021/11/27 00:23:55;;;;;;;;;;;;;;;-144.99;100.00;52619.31;5053252;28;20035;-78
2021/11/27 00:26:22;;;;;;;;;;;;;;;-144.99;100.00;52635.63;5037650;28;20412;-78
2021/11/27 00:28:49;;;;;;;;;;;;;;;-144.99;100.00;52631.53;5044411;28;20042;-77
2021/11/27 00:31:18;;;;;;;;;;;;;;;-144.99;100.00;52607.09;5050290;28;19981;-78
2021/11/27 00:33:45;;;;;;;;;;;;;;;-144.99;100.00;52651.94;4731915;22;10000339;-82
2021/11/27 00:36:14;;;;;;;;;;;;;;;-144.99;100.00;52617.28;5048690;28;19977;-80
2021/11/27 00:38:41;;;;;;;;;;;;;;;-144.99;100.00;52635.63;5051975;28;20058;-79
2021/11/27 00:41:09;;;;;;;;;;;;;;;-144.99;100.00;52662.13;5052233;28;20115;-77
2021/11/27 00:43:36;;;;;;;;;;;;;;;-144.99;100.00;52598.94;5051675;28;20083;-80
2021/11/27 00:46:02;;;;;;;;;;;;;;;-144.99;100.00;52680.47;5052500;28;19977;-77
2021/11/27 00:48:29;;;;;;;;;;;;;;;-144.99;100.00;52660.09;5051750;28;20409;-79
2021/11/27 00:50:57;;;;;;;;;;;;;;;-144.99;100.00;52635.63;5052063;28;20039;-78
2021/11/27 00:53:25;;;;;;;;;;;;;;;-144.99;100.00;52627.47;5047880;28;20009;-79
2021/11/27 00:55:52;;;;;;;;;;;;;;;-144.99;100.00;52635.63;5052996;28;20042;-78
2021/11/27 00:58:18;;;;;;;;;;;;;;;-144.99;100.00;52576.50;5052603;28;20601;-78
2021/11/27 01:00:46;;;;;;;;;;;;;;;-144.99;100.00;52615.25;5052339;28;19985;-79
2021/11/27 01:03:14;;;;;;;;;;;;;;;-144.99;100.00;52623.38;5052958;28;20020;-79
2021/11/27 01:05:41;;;;;;;;;;;;;;;-144.99;100.00;52607.09;5053558;28;20435;-79
2021/11/27 01:08:08;;;;;;;;;;;;;;;-144.99;100.00;52639.69;5054244;28;20619;-77
2021/11/27 01:10:38;;;;;;;;;;;;;;;-144.99;100.00;52611.16;5053857;28;20166;-79
2021/11/27 01:13:05;;;;;;;;;;;;;;;-144.99;100.00;52615.25;5052207;28;20007;-77
2021/11/27 01:15:32;;;;;;;;;;;;;;;-144.99;100.00;52607.09;5036273;28;20040;-80
2021/11/27 01:17:59;;;;;;;;;;;;;;;-144.99;100.00;52594.84;5061373;28;19993;-80
2021/11/27 01:20:27;;;;;;;;;;;;;;;-144.99;100.00;52643.78;5053281;28;20316;-79
2021/11/27 01:22:55;;;;;;;;;;;;;;;-144.99;100.00;52590.78;5053493;28;20080;-79
2021/11/27 01:25:22;;;;;;;;;;;;;;;-144.99;100.00;52651.94;5053858;28;20039;-79
2021/11/27 01:27:50;;;;;;;;;;;;;;;-144.99;100.00;52627.47;5054869;28;19985;-80
2021/11/27 01:30:17;;;;;;;;;;;;;;;-144.99;100.00;52619.31;5052879;28;20027;-78
2021/11/27 01:32:44;;;;;;;;;;;;;;;-144.99;100.00;52656.00;5055821;28;19981;-78
2021/11/27 01:35:11;;;;;;;;;;;;;;;-144.99;100.00;52637.66;5060574;28;19994;-82
2021/11/27 01:37:38;;;;;;;;;;;;;;;-144.99;100.00;52662.13;5063579;28;20001;-77
2021/11/27 01:40:09;;;;;;;;;;;;;;;-144.99;100.00;52637.66;5064762;28;19981;-80
2021/11/27 01:42:35;;;;;;;;;;;;;;;-144.99;100.00;52619.31;5064776;28;19992;-78
2021/11/27 01:45:05;;;;;;;;;;;;;;;-144.99;100.00;52621.34;5064643;28;20047;-78
2021/11/27 01:47:32;;;;;;;;;;;;;;;-144.99;100.00;52603.00;5050991;28;19978;-77
2021/11/27 01:49:58;;;;;;;;;;;;;;;-144.99;100.00;52647.84;5042028;28;19981;-76
2021/11/27 01:52:25;;;;;;;;;;;;;;;-144.99;100.00;52639.69;5052264;28;20032;-78
2021/11/27 01:54:51;;;;;;;;;;;;;;;-144.99;100.00;52607.09;5052705;28;19997;-78
2021/11/27 01:57:18;;;;;;;;;;;;;;;-144.99;100.00;52660.09;5053034;28;20046;-78
2021/11/27 01:59:45;;;;;;;;;;;;;;;-144.99;100.00;52603.00;5051912;28;19977;-77
2021/11/27 02:02:14;;;;;;;;;;;;;;;-144.99;100.00;52615.25;5054046;28;19981;-77
2021/11/27 02:04:43;;;;;;;;;;;;;;;-144.99;100.00;52649.88;5052659;28;20412;-78
2021/11/27 02:07:09;;;;;;;;;;;;;;;-144.99;100.00;52660.09;5053810;28;19981;-81
2021/11/27 02:09:38;;;;;;;;;;;;;;;-144.99;100.00;52629.50;5055017;28;20021;-81
2021/11/27 02:12:06;;;;;;;;;;;;;;;-144.99;100.00;52645.81;5057197;28;20099;-80
2021/11/27 02:14:33;;;;;;;;;;;;;;;-144.99;100.00;52615.25;5053176;28;20058;-80
2021/11/27 02:16:59;;;;;;;;;;;;;;;-144.99;100.00;52635.63;5054887;28;19981;-80
2021/11/27 02:19:27;;;;;;;;;;;;;;;-144.99;100.00;52598.94;5054504;28;20133;-80
2021/11/27 02:21:55;;;;;;;;;;;;;;;-144.99;100.00;52639.69;5046058;28;19982;-80
2021/11/27 02:24:23;;;;;;;;;;;;;;;-144.99;100.00;52627.47;5052882;28;20023;-80
2021/11/27 02:26:50;;;;;;;;;;;;;;;-144.99;100.00;52627.47;5048742;28;20023;-79
2021/11/27 02:29:18;;;;;;;;;;;;;;;-144.99;100.00;52635.63;5048591;28;20035;-80
2021/11/27 02:31:45;;;;;;;;;;;;;;;-144.99;100.00;52594.84;5046805;28;20058;-79
2021/11/27 02:34:11;;;;;;;;;;;;;;;-144.99;100.00;52637.66;5050057;28;20001;-79
2021/11/27 02:36:39;;;;;;;;;;;;;;;-144.99;100.00;52603.00;5046004;28;20012;-79
2021/11/27 02:39:09;;;;;;;;;;;;;;;-144.99;100.00;52615.25;5050787;28;19997;-78
2021/11/27 02:41:35;;;;;;;;;;;;;;;-144.99;100.00;52664.16;5051195;28;19985;-78
2021/11/27 02:44:02;;;;;;;;;;;;;;;-144.99;100.00;52627.47;5050232;28;20005;-77
2021/11/27 02:46:28;;;;;;;;;;;;;;;-144.99;100.00;52617.28;5050521;28;20029;-78
2021/11/27 02:48:55;;;;;;;;;;;;;;;-144.99;100.00;52600.97;5049608;28;20443;-77
2021/11/27 02:51:22;;;;;;;;;;;;;;;-144.99;100.00;52627.47;5051511;28;20031;-77
2021/11/27 02:53:49;;;;;;;;;;;;;;;-144.99;100.00;52647.84;5045297;28;20409;-78
2021/11/27 02:56:16;;;;;;;;;;;;;;;-144.99;100.00;52607.09;5050091;28;19985;-78
2021/11/27 02:58:43;;;;;;;;;;;;;;;-144.99;100.00;52627.47;5049789;28;20502;-76
2021/11/27 03:01:10;;;;;;;;;;;;;;;-144.99;100.00;52627.47;5049998;28;20033;-77
2021/11/27 03:03:37;;;;;;;;;;;;;;;-144.99;100.00;52643.78;5049685;28;20004;-78
2021/11/27 03:06:04;;;;;;;;;;;;;;;-144.99;100.00;52647.84;5050238;28;20084;-78
2021/11/27 03:08:31;;;;;;;;;;;;;;;-144.99;100.00;52629.50;5049701;28;19977;-78
2021/11/27 03:10:58;;;;;;;;;;;;;;;-144.99;100.00;52621.34;5050686;28;20005;-78
2021/11/27 03:13:27;;;;;;;;;;;;;;;-144.99;100.00;52617.28;5047221;28;19989;-80
2021/11/27 03:15:53;;;;;;;;;;;;;;;-144.99;100.00;52643.78;5045575;28;19977;-79
2021/11/27 03:18:20;;;;;;;;;;;;;;;-144.99;100.00;52598.94;5039092;28;20050;-79
2021/11/27 03:20:47;;;;;;;;;;;;;;;-144.99;100.00;52594.84;5044927;28;19977;-80
2021/11/27 03:23:13;;;;;;;;;;;;;;;-144.99;100.00;52633.59;5042481;28;19981;-80
2021/11/27 03:25:41;;;;;;;;;;;;;;;-144.99;100.00;52664.16;5056336;28;20026;-83
2021/11/27 03:28:07;;;;;;;;;;;;;;;-144.99;100.00;52639.69;5056977;28;19981;-81
2021/11/27 03:30:35;;;;;;;;;;;;;;;-144.99;100.00;52600.97;5057247;28;20436;-84
2021/11/27 03:33:03;;;;;;;;;;;;;;;-144.99;100.00;52635.63;5057388;28;20035;-80
2021/11/27 03:35:29;;;;;;;;;;;;;;;-144.99;100.00;52603.00;5054250;28;20005;-80
2021/11/27 03:37:56;;;;;;;;;;;;;;;-144.99;100.00;52623.38;5055926;28;20055;-80
2021/11/27 03:40:23;;;;;;;;;;;;;;;-144.99;100.00;52664.16;5060964;28;20042;-82
2021/11/27 03:42:49;;;;;;;;;;;;;;;-144.99;100.00;52627.47;5061481;28;20413;-80
2021/11/27 03:45:19;;;;;;;;;;;;;;;-144.99;100.00;52651.94;5060747;28;20004;-78
2021/11/27 03:48:01;;;;;;;;;;;;;;;-144.99;100.00;52619.31;5048945;28;20012;-78
2021/11/27 03:50:31;;;;;;;;;;;;;;;-144.99;100.00;52635.63;5045012;28;19958;-78
2021/11/27 03:52:58;;;;;;;;;;;;;;;-144.99;100.00;52643.78;5051715;28;19977;-78
2021/11/27 03:55:24;;;;;;;;;;;;;;;-144.99;100.00;52615.25;5051330;28;20458;-78
2021/11/27 03:57:51;;;;;;;;;;;;;;;-144.99;100.00;52641.72;5054309;28;20424;-78
2021/11/27 04:00:17;;;;;;;;;;;;;;;-144.99;100.00;52631.53;5053522;28;19981;-79
2021/11/27 04:02:44;;;;;;;;;;;;;;;-144.99;100.00;52651.94;5054344;28;19981;-79
2021/11/27 04:05:13;;;;;;;;;;;;;;;-144.99;100.00;52643.78;5053174;28;20433;-80
2021/11/27 04:07:39;;;;;;;;;;;;;;;-144.99;100.00;52627.47;5054467;28;20008;-79
2021/11/27 04:10:06;;;;;;;;;;;;;;;-144.99;100.00;52598.94;5053743;28;19944;-80
2021/11/27 04:12:34;;;;;;;;;;;;;;;-144.99;100.00;52660.09;5054078;28;20474;-79
2021/11/27 04:15:02;;;;;;;;;;;;;;;-144.99;100.00;52617.28;5053202;28;20032;-79
2021/11/27 04:17:29;;;;;;;;;;;;;;;-144.99;100.00;52603.00;5053918;28;19976;-79
2021/11/27 04:19:55;;;;;;;;;;;;;;;-144.99;100.00;52603.00;5057377;28;20047;-79
2021/11/27 04:22:23;;;;;;;;;;;;;;;-144.99;100.00;52647.84;5042718;28;19981;-79
2021/11/27 04:24:50;;;;;;;;;;;;;;;-144.99;100.00;52631.53;5052047;28;20374;-78
2021/11/27 04:27:16;;;;;;;;;;;;;;;-144.99;100.00;52603.00;5035915;28;20104;-78
2021/11/27 04:29:43;;;;;;;;;;;;;;;-144.99;100.00;52619.31;5052871;28;19985;-78
2021/11/27 04:32:09;;;;;;;;;;;;;;;-144.99;100.00;52639.69;5055534;28;19989;-80
2021/11/27 04:34:36;;;;;;;;;;;;;;;-144.99;100.00;52623.38;5058605;28;20055;-80
2021/11/27 04:37:03;;;;;;;;;;;;;;;-144.99;100.00;52631.53;5061070;28;19977;-81
2021/11/27 04:39:31;;;;;;;;;;;;;;;-144.99;100.00;52592.81;5066444;28;20001;-80
2021/11/27 04:41:57;;;;;;;;;;;;;;;-144.99;100.00;52637.66;5066461;28;20397;-79
2021/11/27 04:44:24;;;;;;;;;;;;;;;-144.99;100.00;52621.34;5065877;28;20047;-80
2021/11/27 04:46:50;;;;;;;;;;;;;;;-144.99;100.00;52649.88;5065158;28;20011;-80
2021/11/27 04:49:17;;;;;;;;;;;;;;;-144.99;100.00;52611.16;5060331;28;19925;-80
2021/11/27 04:51:43;;;;;;;;;;;;;;;-144.99;100.00;52625.44;5053007;28;19978;-80
2021/11/27 04:54:10;;;;;;;;;;;;;;;-144.99;100.00;52594.84;5048706;28;20036;-82
2021/11/27 04:56:38;;;;;;;;;;;;;;;-144.99;100.00;52647.84;5053354;28;20027;-80
2021/11/27 04:59:04;;;;;;;;;;;;;;;-144.99;100.00;52607.09;5052405;28;20448;-81
2021/11/27 05:01:31;;;;;;;;;;;;;;;-144.99;100.00;52627.47;5053968;28;20027;-79
2021/11/27 05:03:57;;;;;;;;;;;;;;;-144.99;100.00;52603.00;5047977;28;19997;-79
2021/11/27 05:06:24;;;;;;;;;;;;;;;-144.99;100.00;52631.53;5055698;28;20008;-80
2021/11/27 05:08:51;;;;;;;;;;;;;;;-144.99;100.00;52637.66;5047083;28;20455;-80
2021/11/27 05:11:17;;;;;;;;;;;;;;;-144.99;100.00;52625.44;5052278;28;20023;-81
2021/11/27 05:13:45;;;;;;;;;;;;;;;-144.99;100.00;52607.09;5051414;28;20091;-80
2021/11/27 05:16:12;;;;;;;;;;;;;;;-144.99;100.00;52598.94;5069619;28;19962;-87
2021/11/27 05:18:40;;;;;;;;;;;;;;;-144.99;100.00;52660.09;5065515;28;20127;-81
2021/11/27 05:21:07;;;;;;;;;;;;;;;-144.99;100.00;52639.69;5057815;28;19977;-81
2021/11/27 05:23:33;;;;;;;;;;;;;;;-144.99;100.00;52623.38;5058516;28;19997;-79
2021/11/27 05:26:00;;;;;;;;;;;;;;;-144.99;100.00;52647.84;5058454;28;20050;-79
2021/11/27 05:28:26;;;;;;;;;;;;;;;-144.99;100.00;52639.69;5056789;28;20520;-78
2021/11/27 05:30:54;;;;;;;;;;;;;;;-144.99;100.00;52641.72;5067249;28;19981;-81
2021/11/27 05:33:35;;;;;;;;;;;;;;;-144.99;100.00;52643.78;5057677;28;20266;-80
2021/11/27 05:36:02;;;;;;;;;;;;;;;-144.99;100.00;52627.47;5054567;28;19977;-80
2021/11/27 05:38:29;;;;;;;;;;;;;;;-144.99;100.00;52615.25;5053562;28;19997;-77
2021/11/27 05:40:55;;;;;;;;;;;;;;;-144.99;100.00;52643.78;5052854;28;19981;-80
2021/11/27 05:43:22;;;;;;;;;;;;;;;-144.99;100.00;52635.63;5052024;28;19981;-78
2021/11/27 05:45:48;;;;;;;;;;;;;;;-144.99;100.00;52613.19;5051656;28;20469;-80
2021/11/27 05:48:16;;;;;;;;;;;;;;;-144.99;100.00;52619.31;5034252;28;20447;-79
2021/11/27 05:50:43;;;;;;;;;;;;;;;-144.99;100.00;52641.72;5049048;28;20028;-80
2021/11/27 05:53:10;;;;;;;;;;;;;;;-144.99;100.00;52651.94;5052430;28;20162;-79
2021/11/27 05:55:36;;;;;;;;;;;;;;;-144.99;100.00;52676.38;5039788;28;20060;-78
2021/11/27 05:58:03;;;;;;;;;;;;;;;-144.99;100.00;52647.84;5053061;28;20027;-79
2021/11/27 06:00:29;;;;;;;;;;;;;;;-144.99;100.00;52631.53;5052390;28;19985;-80
2021/11/27 06:02:56;;;;;;;;;;;;;;;-144.99;100.00;52656.00;5052176;28;20004;-81
2021/11/27 06:05:28;;;;;;;;;;;;;;;-144.99;100.00;52639.69;5053573;28;20012;-80
2021/11/27 06:07:55;;;;;;;;;;;;;;;-144.99;100.00;52621.34;5064815;28;19988;-81
2021/11/27 06:10:21;;;;;;;;;;;;;;;-144.99;100.00;52623.38;5042115;28;20031;-79
2021/11/27 06:12:48;;;;;;;;;;;;;;;-144.99;100.00;52637.66;5056663;28;19985;-81
2021/11/27 06:15:15;;;;;;;;;;;;;;;-144.99;100.00;52578.53;5059578;28;20003;-81
2021/11/27 06:17:41;;;;;;;;;;;;;;;-144.99;100.00;52598.94;5058218;28;19981;-82
2021/11/27 06:20:09;;;;;;;;;;;;;;;-144.99;100.00;52562.25;5056406;28;19997;-82
2021/11/27 06:22:37;;;;;;;;;;;;;;;-144.99;100.00;52631.53;5056176;28;19989;-81
2021/11/27 06:25:04;;;;;;;;;;;;;;;-144.99;100.00;52639.69;5051948;28;20020;-82
2021/11/27 06:27:31;;;;;;;;;;;;;;;-144.99;100.00;52621.34;5040119;28;20520;-82
2021/11/27 06:29:57;;;;;;;;;;;;;;;-144.99;100.00;52639.69;5044392;28;19979;-81
2021/11/27 06:32:24;;;;;;;;;;;;;;;-144.99;100.00;52635.63;5050743;28;20040;-78
2021/11/27 06:34:51;;;;;;;;;;;;;;;-144.99;100.00;52598.94;5053411;28;20013;-80
2021/11/27 06:37:18;;;;;;;;;;;;;;;-144.99;100.00;52623.38;5053536;28;20043;-78
2021/11/27 06:39:46;;;;;;;;;;;;;;;-144.99;100.00;52578.53;5085589;22;19967;-77
2021/11/27 06:42:13;;;;;;;;;;;;;;;-144.99;100.00;52623.38;5055846;28;20012;-76
2021/11/27 06:44:40;;;;;;;;;;;;;;;-144.99;100.00;52649.88;5053138;28;19981;-76
2021/11/27 06:47:07;;;;;;;;;;;;;;;-144.99;100.00;52596.88;5051567;28;20197;-77
2021/11/27 06:49:33;;;;;;;;;;;;;;;-144.99;100.00;52645.81;5055716;28;20135;-77
2021/11/27 06:52:00;;;;;;;;;;;;;;;-144.99;100.00;52643.78;5033170;28;20032;-77
2021/11/27 06:54:26;;;;;;;;;;;;;;;-144.99;100.00;52609.13;5024104;28;19979;-73
2021/11/27 06:56:54;;;;;;;;;;;;;;;-144.99;100.00;52658.03;5030073;28;20029;-72
2021/11/27 06:59:21;;;;;;;;;;;;;;;-144.99;100.00;52621.34;5041680;28;20127;-72
2021/11/27 07:01:47;;;;;;;;;;;;;;;-144.99;100.00;52615.25;5053004;28;20017;-70
2021/11/27 07:04:14;;;;;;;;;;;;;;;-144.99;100.00;52615.25;5037707;28;20028;-77
2021/11/27 07:06:40;;;;;;;;;;;;;;;-144.99;100.00;52635.63;5041120;28;20405;-77
2021/11/27 07:09:07;;;;;;;;;;;;;;;-144.99;100.00;52609.13;5043499;28;20000;-77
2021/11/27 07:11:34;;;;;;;;;;;;;;;-144.99;100.00;52639.69;5035438;28;19983;-76
2021/11/27 07:14:02;;;;;;;;;;;;;;;-144.99;100.00;52635.63;5029023;28;19978;-76
2021/11/27 07:16:29;;;;;;;;;;;;;;;-144.99;100.00;52647.84;5029758;28;20022;-75
2021/11/27 07:18:55;;;;;;;;;;;;;;;-144.99;100.00;52647.84;5040383;28;20091;-76
2021/11/27 07:21:22;;;;;;;;;;;;;;;-144.99;100.00;52637.66;5041652;28;20342;-75
2021/11/27 07:23:48;;;;;;;;;;;;;;;-144.99;100.00;52690.66;5052471;28;20027;-74
2021/11/27 07:26:15;;;;;;;;;;;;;;;-144.99;100.00;52613.19;5053692;28;19985;-74
2021/11/27 07:28:41;;;;;;;;;;;;;;;-144.99;100.00;52623.38;5053688;28;20231;-74
2021/11/27 07:31:09;;;;;;;;;;;;;;;-144.99;100.00;52635.63;5043740;28;20430;-76
2021/11/27 07:33:36;;;;;;;;;;;;;;;-144.99;100.00;52641.72;5035435;28;20044;-75
2021/11/27 07:36:02;;;;;;;;;;;;;;;-144.99;100.00;52639.69;5032760;28;20013;-75
2021/11/27 07:38:29;;;;;;;;;;;;;;;-144.99;100.00;52639.69;5032464;28;20032;-76
2021/11/27 07:40:55;;;;;;;;;;;;;;;-144.99;100.00;52637.66;5033412;28;20024;-76
2021/11/27 07:43:22;;;;;;;;;;;;;;;-144.99;100.00;52623.38;5042015;28;20452;-75
2021/11/27 07:45:48;;;;;;;;;;;;;;;-144.99;100.00;52607.09;5053062;28;20031;-76
2021/11/27 07:48:16;;;;;;;;;;;;;;;-144.99;100.00;52627.47;5028909;28;20017;-75
2021/11/27 07:50:43;;;;;;;;;;;;;;;-144.99;100.00;52623.38;5037884;28;19998;-75
2021/11/27 07:53:09;;;;;;;;;;;;;;;-144.99;100.00;52615.25;5052721;28;20024;-77
2021/11/27 07:55:36;;;;;;;;;;;;;;;-144.99;100.00;52607.09;5052701;28;20051;-74
2021/11/27 07:58:02;;;;;;;;;;;;;;;-144.99;100.00;52637.66;5043361;28;19986;-74
2021/11/27 08:00:29;;;;;;;;;;;;;;;-144.99;100.00;52639.69;5035245;28;20005;-75
2021/11/27 08:02:55;;;;;;;;;;;;;;;-144.99;100.00;52631.53;5025606;28;20464;-76
2021/11/27 08:05:23;;;;;;;;;;;;;;;-144.99;100.00;52639.69;5031544;28;20535;-76
2021/11/27 08:07:50;;;;;;;;;;;;;;;-144.99;100.00;52609.13;5032329;28;19981;-74
2021/11/27 08:10:17;;;;;;;;;;;;;;;-144.99;100.00;52631.53;5030678;28;20540;-74
2021/11/27 08:12:43;;;;;;;;;;;;;;;-144.99;100.00;52594.84;5032116;28;20350;-75
2021/11/27 08:15:10;;;;;;;;;;;;;;;-144.99;100.00;52645.81;5024627;28;20024;-76
2021/11/27 08:17:37;;;;;;;;;;;;;;;-144.99;100.00;52619.31;5030592;28;20092;-73
2021/11/27 08:20:04;;;;;;;;;;;;;;;-144.99;100.00;52621.34;5031430;28;20051;-75
2021/11/27 08:22:32;;;;;;;;;;;;;;;-144.99;100.00;52586.69;5026251;28;20402;-74
2021/11/27 08:24:58;;;;;;;;;;;;;;;-144.99;100.00;52625.44;5029731;28;20032;-74
2021/11/27 08:27:27;;;;;;;;;;;;;;;-144.99;100.00;52621.34;5019322;28;20353;-74
2021/11/27 08:29:54;;;;;;;;;;;;;;;-144.99;100.00;52594.84;5031582;28;19993;-76
2021/11/27 08:32:20;;;;;;;;;;;;;;;-144.99;100.00;52639.69;5024166;28;19982;-72
2021/11/27 08:34:47;;;;;;;;;;;;;;;-144.99;100.00;52619.31;5027336;28;19993;-74
2021/11/27 08:37:13;;;;;;;;;;;;;;;-144.99;100.00;52582.63;5031239;28;20376;-73
2021/11/27 08:39:41;;;;;;;;;;;;;;;-144.99;100.00;52607.09;5030712;28;20479;-75
2021/11/27 08:42:08;;;;;;;;;;;;;;;-144.99;100.00;52615.25;5024965;28;20485;-73
2021/11/27 08:44:34;;;;;;;;;;;;;;;-144.99;100.00;52643.78;5031209;28;20021;-74
2021/11/27 08:47:01;;;;;;;;;;;;;;;-144.99;100.00;52598.94;5030143;28;20009;-73
2021/11/27 08:49:27;;;;;;;;;;;;;;;-144.99;100.00;52607.09;5022168;28;20034;-72
2021/11/27 08:51:54;;;;;;;;;;;;;;;-144.99;100.00;52623.38;5027518;28;20413;-74
2021/11/27 08:54:20;;;;;;;;;;;;;;;-144.99;100.00;52607.09;5034955;28;20395;-76
2021/11/27 08:56:49;;;;;;;;;;;;;;;-144.99;100.00;52643.78;5051048;28;19993;-74
2021/11/27 08:59:15;;;;;;;;;;;;;;;-144.99;100.00;52633.59;5050902;28;20056;-74
2021/11/27 09:01:42;;;;;;;;;;;;;;;-144.99;100.00;52641.72;5051463;28;20091;-75
2021/11/27 09:04:08;;;;;;;;;;;;;;;-144.99;100.00;52643.78;5031845;28;20028;-75
2021/11/27 09:06:35;;;;;;;;;;;;;;;-144.99;100.00;52598.94;5032650;28;20013;-77
2021/11/27 09:09:01;;;;;;;;;;;;;;;-144.99;100.00;52586.69;5014507;28;20002;-74
2021/11/27 09:11:29;;;;;;;;;;;;;;;-144.99;100.00;52637.66;5029474;28;20035;-75
2021/11/27 09:13:57;;;;;;;;;;;;;;;-144.99;100.00;52637.66;5027650;28;20286;-75
2021/11/27 09:16:23;;;;;;;;;;;;;;;-144.99;100.00;52611.16;5034633;28;19978;-76
2021/11/27 09:18:50;;;;;;;;;;;;;;;-144.99;100.00;52600.97;5035418;28;19990;-74
2021/11/27 09:21:16;;;;;;;;;;;;;;;-144.99;100.00;52615.25;5027359;28;19989;-73
2021/11/27 09:23:42;;;;;;;;;;;;;;;-144.99;100.00;52578.53;5027403;28;20032;-77
2021/11/27 09:26:09;;;;;;;;;;;;;;;-144.99;100.00;52623.38;5027529;28;20040;-75
2021/11/27 09:28:35;;;;;;;;;;;;;;;-144.99;100.00;52635.63;5025524;28;20033;-75
2021/11/27 09:31:03;;;;;;;;;;;;;;;-144.99;100.00;52611.16;5023691;28;20061;-75
2021/11/27 09:33:30;;;;;;;;;;;;;;;-144.99;100.00;52607.09;5023262;28;20020;-76
2021/11/27 09:36:00;;;;;;;;;;;;;;;-144.99;100.00;52615.25;5028676;28;19951;-76
2021/11/27 09:38:27;;;;;;;;;;;;;;;-144.99;100.00;52611.16;5024933;28;20052;-76
2021/11/27 09:41:09;;;;;;;;;;;;;;;-144.99;100.00;52660.09;5025753;28;19997;-78
2021/11/27 09:43:36;;;;;;;;;;;;;;;-144.99;100.00;52615.25;5024568;28;20393;-76
2021/11/27 09:46:04;;;;;;;;;;;;;;;-144.99;100.00;52574.47;5024655;28;19978;-76
2021/11/27 09:48:32;;;;;;;;;;;;;;;-144.99;100.00;52643.78;5023224;28;20024;-76
2021/11/27 09:50:58;;;;;;;;;;;;;;;-144.99;100.00;52639.69;5029546;28;19981;-76
2021/11/27 09:53:26;;;;;;;;;;;;;;;-144.99;100.00;52625.44;5025171;28;20012;-76
2021/11/27 09:55:53;;;;;;;;;;;;;;;-144.99;100.00;52594.84;5022433;28;19978;-76
2021/11/27 09:58:21;;;;;;;;;;;;;;;-144.99;100.00;52656.00;5025481;28;20072;-76
2021/11/27 10:00:48;;;;;;;;;;;;;;;-144.99;100.00;52594.84;5031653;28;19989;-76
2021/11/27 10:03:17;;;;;;;;;;;;;;;-144.99;100.00;52594.84;5030824;28;19977;-75
2021/11/27 10:05:46;;;;;;;;;;;;;;;-144.99;100.00;52631.53;5025261;28;19974;-75
2021/11/27 10:08:13;;;;;;;;;;;;;;;-144.99;100.00;52627.47;5025331;28;19978;-76
2021/11/27 10:10:40;;;;;;;;;;;;;;;-144.99;100.00;52647.84;5026502;28;20411;-75
2021/11/27 10:13:06;;;;;;;;;;;;;;;-144.99;100.00;52635.63;5027207;28;19981;-76
2021/11/27 10:15:33;;;;;;;;;;;;;;;-144.99;100.00;52635.63;5030414;28;20080;-75
2021/11/27 10:18:13;;;;;;;;;;;;;;;-144.99;100.00;52651.94;5031140;28;20077;-73
2021/11/27 10:20:41;;;;;;;;;;;;;;;-144.99;100.00;52570.38;5030469;28;19997;-74
2021/11/27 10:23:07;;;;;;;;;;;;;;;-144.99;100.00;52594.84;5030083;28;20096;-74
2021/11/27 10:25:35;;;;;;;;;;;;;;;-144.99;100.00;52607.09;5024349;28;20025;-75
2021/11/27 10:28:03;;;;;;;;;;;;;;;-144.99;100.00;52603.00;5028759;28;19981;-75
2021/11/27 10:30:35;;;;;;;;;;;;;;;-144.99;100.00;52615.25;5024231;28;20037;-76
2021/11/27 10:33:03;;;;;;;;;;;;;;;-144.99;100.00;52639.69;5028143;28;20016;-74
2021/11/27 10:35:29;;;;;;;;;;;;;;;-144.99;100.00;52621.34;5025398;28;20076;-75
2021/11/27 10:37:57;;;;;;;;;;;;;;;-144.99;100.00;52600.97;5024087;28;20167;-76
2021/11/27 10:40:25;;;;;;;;;;;;;;;-144.99;100.00;52594.84;5024720;28;20134;-74
2021/11/27 10:42:53;;;;;;;;;;;;;;;-144.99;100.00;52631.53;5029242;28;20062;-77
2021/11/27 10:45:21;;;;;;;;;;;;;;;-144.99;100.00;52603.00;5020806;28;19985;-76
2021/11/27 10:47:47;;;;;;;;;;;;;;;-144.99;100.00;52600.97;5033660;28;19977;-77
2021/11/27 10:50:18;;;;;;;;;;;;;;;-144.99;100.00;52611.16;5047305;28;20069;-78
2021/11/27 10:52:45;;;;;;;;;;;;;;;-144.99;100.00;52607.09;5033563;28;20044;-77
2021/11/27 10:55:21;;;;;;;;;;;;;;;-144.99;100.00;52629.50;5031850;28;19988;-78
2021/11/27 10:57:48;;;;;;;;;;;;;;;-144.99;100.00;52635.63;5047050;28;20024;-77
2021/11/27 11:00:27;;;;;;;;;;;;;;;-144.99;100.00;52598.94;5038918;28;19997;-76
2021/11/27 11:02:54;;;;;;;;;;;;;;;-144.99;100.00;52631.53;5045870;28;20305;-76
2021/11/27 11:05:21;;;;;;;;;;;;;;;-144.99;100.00;52619.31;5030219;28;20031;-76
2021/11/27 11:07:53;;;;;;;;;;;;;;;-144.99;100.00;52615.25;5030619;28;20004;-74
2021/11/27 11:10:22;;;;;;;;;;;;;;;-144.99;100.00;52625.44;5020513;28;20475;-76
2021/11/27 11:12:50;;;;;;;;;;;;;;;-144.99;100.00;52603.00;5031017;28;19978;-75
2021/11/27 11:15:21;;;;;;;;;;;;;;;-144.99;100.00;52603.00;5017805;28;19974;-76
2021/11/27 11:17:48;;;;;;;;;;;;;;;-144.99;100.00;52598.94;5024370;28;20000;-77
2021/11/27 11:20:17;;;;;;;;;;;;;;;-144.99;100.00;52619.31;5019784;28;19994;-75
2021/11/27 11:22:55;;;;;;;;;;;;;;;-144.99;100.00;52607.09;5023292;28;19977;-77
2021/11/27 11:25:23;;;;;;;;;;;;;;;-144.99;100.00;52598.94;5023696;28;20028;-74
2021/11/27 11:27:50;;;;;;;;;;;;;;;-144.99;100.00;52647.84;5025354;28;19974;-76
2021/11/27 11:30:20;;;;;;;;;;;;;;;-144.99;99.67;52582.63;5022600;28;20052;-78
2021/11/27 11:32:46;;;;;;;;;;;;;;;-144.99;100.00;52623.38;5031951;28;19978;-76
2021/11/27 11:35:14;;;;;;;;;;;;;;;-144.99;100.00;52619.31;5023209;28;20021;-76
2021/11/27 11:37:40;;;;;;;;;;;;;;;-144.99;100.00;52603.00;5029073;28;19977;-76
2021/11/27 11:40:08;;;;;;;;;;;;;;;-144.99;100.00;52619.31;5024205;28;20041;-76
2021/11/27 11:42:35;;;;;;;;;;;;;;;-144.99;100.00;52615.25;5027624;28;20158;-77
2021/11/27 11:45:02;;;;;;;;;;;;;;;-144.99;100.00;52598.94;5028738;28;20103;-76
2021/11/27 11:47:29;;;;;;;;;;;;;;;-144.99;99.89;52592.81;5027841;28;20505;-75
2021/11/27 11:49:58;;;;;;;;;;;;;;;-144.99;99.61;52590.78;5027780;28;20431;-76
2021/11/27 11:52:26;;;;;;;;;;;;;;;-144.99;100.00;52627.47;5028509;28;20207;-75
2021/11/27 11:54:58;;;;;;;;;;;;;;;-144.99;100.00;52619.31;5032343;28;19974;-79
2021/11/27 11:57:40;;;;;;;;;;;;;;;-144.99;100.00;52625.44;5047565;28;20020;-76
2021/11/27 12:00:20;;;;;;;;;;;;;;;-144.99;100.00;52590.78;5032621;28;20035;-76
2021/11/27 12:02:47;;;;;;;;;;;;;;;-144.99;99.86;52592.81;5027567;28;20294;-77
2021/11/27 12:05:15;;;;;;;;;;;;;;;-144.99;100.00;52633.59;5023564;28;20007;-77
2021/11/27 12:07:50;;;;;;;;;;;;;;;-144.99;100.00;52607.09;5029976;28;20077;-77
2021/11/27 12:10:17;;;;;;;;;;;;;;;-144.99;100.00;52619.31;5027131;28;20081;-77
2021/11/27 12:12:45;;;;;;;;;;;;;;;-144.99;100.00;52611.16;5027062;28;19956;-77
2021/11/27 12:15:12;;;;;;;;;;;;;;;-144.99;100.00;52576.50;5024949;28;20398;-78
2021/11/27 12:17:56;;;;;;;;;;;;;;;-144.99;100.00;52635.63;5032480;28;19978;-78
2021/11/27 12:20:40;;;;;;;;;;;;;;;-144.99;100.00;52633.59;5021971;28;20005;-76